sensor_id;sensor_type;location;lat;lon;timestamp;P1;durP1;ratioP1;P2;durP2;ratioP2
72586;SDS011;60621;49.576;11.024;2022-08-04T00:00:39;4.90;;;3.10;;
72586;SDS011;60621;49.576;11.024;2022-08-04T00:01:52;6.40;;;3.25;;
72586;SDS011;60621;49.576;11.024;2022-08-04T00:03:13;5.30;;;2.80;;
72586;SDS011;60621;49.576;11.024;2022-08-04T00:04:23;5.55;;;3.25;;
72586;SDS011;60621;49.576;11.024;2022-08-04T00:06:59;5.43;;;2.85;;
72586;SDS011;60621;49.576;11.024;2022-08-04T00:08:29;5.05;;;2.70;;
72586;SDS011;60621;49.576;11.024;2022-08-04T00:09:48;4.50;;;2.78;;
72586;SDS011;60621;49.576;11.024;2022-08-04T00:10:55;5.57;;;2.83;;
72586;SDS011;60621;49.576;11.024;2022-08-04T00:12:00;6.07;;;3.45;;
72586;SDS011;60621;49.576;11.024;2022-08-04T00:13:03;4.85;;;2.88;;
72586;SDS011;60621;49.576;11.024;2022-08-04T00:14:08;7.40;;;3.15;;
72586;SDS011;60621;49.576;11.024;2022-08-04T00:15:15;4.88;;;3.00;;
72586;SDS011;60621;49.576;11.024;2022-08-04T00:17:19;4.78;;;2.95;;
72586;SDS011;60621;49.576;11.024;2022-08-04T00:18:29;5.47;;;2.95;;
72586;SDS011;60621;49.576;11.024;2022-08-04T00:19:48;4.65;;;2.70;;
72586;SDS011;60621;49.576;11.024;2022-08-04T00:22:02;6.28;;;2.95;;
72586;SDS011;60621;49.576;11.024;2022-08-04T00:23:07;6.63;;;2.90;;
72586;SDS011;60621;49.576;11.024;2022-08-04T00:24:09;5.38;;;2.95;;
72586;SDS011;60621;49.576;11.024;2022-08-04T00:25:13;6.53;;;2.97;;
72586;SDS011;60621;49.576;11.024;2022-08-04T00:26:15;5.10;;;2.95;;
72586;SDS011;60621;49.576;11.024;2022-08-04T00:27:17;4.97;;;2.90;;
72586;SDS011;60621;49.576;11.024;2022-08-04T00:28:20;7.35;;;3.15;;
72586;SDS011;60621;49.576;11.024;2022-08-04T00:29:22;7.32;;;3.00;;
72586;SDS011;60621;49.576;11.024;2022-08-04T00:30:24;5.10;;;2.80;;
72586;SDS011;60621;49.576;11.024;2022-08-04T00:31:25;4.63;;;2.80;;
72586;SDS011;60621;49.576;11.024;2022-08-04T00:32:48;4.78;;;2.90;;
72586;SDS011;60621;49.576;11.024;2022-08-04T00:33:50;5.03;;;2.90;;
72586;SDS011;60621;49.576;11.024;2022-08-04T00:34:56;5.10;;;2.70;;
72586;SDS011;60621;49.576;11.024;2022-08-04T00:35:58;4.70;;;2.90;;
72586;SDS011;60621;49.576;11.024;2022-08-04T00:37:00;5.55;;;3.25;;
72586;SDS011;60621;49.576;11.024;2022-08-04T00:38:03;7.38;;;2.90;;
72586;SDS011;60621;49.576;11.024;2022-08-04T00:39:06;7.32;;;3.25;;
72586;SDS011;60621;49.576;11.024;2022-08-04T00:40:18;5.38;;;3.13;;
72586;SDS011;60621;49.576;11.024;2022-08-04T00:41:40;4.63;;;2.90;;
72586;SDS011;60621;49.576;11.024;2022-08-04T00:44:49;4.85;;;2.85;;
72586;SDS011;60621;49.576;11.024;2022-08-04T00:47:32;6.03;;;3.13;;
72586;SDS011;60621;49.576;11.024;2022-08-04T00:54:55;5.20;;;3.20;;
72586;SDS011;60621;49.576;11.024;2022-08-04T00:57:40;5.47;;;3.10;;
72586;SDS011;60621;49.576;11.024;2022-08-04T01:00:40;5.30;;;2.85;;
72586;SDS011;60621;49.576;11.024;2022-08-04T01:01:59;5.03;;;3.30;;
72586;SDS011;60621;49.576;11.024;2022-08-04T01:03:08;4.93;;;3.13;;
72586;SDS011;60621;49.576;11.024;2022-08-04T01:04:19;5.13;;;2.90;;
72586;SDS011;60621;49.576;11.024;2022-08-04T01:16:06;5.28;;;3.05;;
72586;SDS011;60621;49.576;11.024;2022-08-04T01:19:59;6.03;;;2.97;;
72586;SDS011;60621;49.576;11.024;2022-08-04T01:23:48;5.10;;;3.10;;
72586;SDS011;60621;49.576;11.024;2022-08-04T01:27:10;5.22;;;3.35;;
72586;SDS011;60621;49.576;11.024;2022-08-04T01:30:06;5.72;;;3.30;;
72586;SDS011;60621;49.576;11.024;2022-08-04T01:32:43;4.90;;;3.10;;
72586;SDS011;60621;49.576;11.024;2022-08-04T01:33:51;7.25;;;3.47;;
72586;SDS011;60621;49.576;11.024;2022-08-04T01:35:21;8.95;;;3.17;;
72586;SDS011;60621;49.576;11.024;2022-08-04T01:36:46;6.00;;;3.30;;
72586;SDS011;60621;49.576;11.024;2022-08-04T01:38:04;5.30;;;3.42;;
72586;SDS011;60621;49.576;11.024;2022-08-04T01:39:21;5.03;;;3.35;;
72586;SDS011;60621;49.576;11.024;2022-08-04T01:40:41;6.97;;;3.47;;
72586;SDS011;60621;49.576;11.024;2022-08-04T01:41:45;4.85;;;3.20;;
72586;SDS011;60621;49.576;11.024;2022-08-04T01:42:58;5.78;;;3.45;;
72586;SDS011;60621;49.576;11.024;2022-08-04T01:44:02;4.90;;;3.20;;
72586;SDS011;60621;49.576;11.024;2022-08-04T01:45:05;5.35;;;2.97;;
72586;SDS011;60621;49.576;11.024;2022-08-04T01:46:15;6.57;;;3.30;;
72586;SDS011;60621;49.576;11.024;2022-08-04T01:47:19;5.53;;;3.10;;
72586;SDS011;60621;49.576;11.024;2022-08-04T01:48:23;4.90;;;3.10;;
72586;SDS011;60621;49.576;11.024;2022-08-04T01:49:27;5.00;;;3.28;;
72586;SDS011;60621;49.576;11.024;2022-08-04T01:50:40;6.40;;;3.33;;
72586;SDS011;60621;49.576;11.024;2022-08-04T01:51:45;4.80;;;3.20;;
72586;SDS011;60621;49.576;11.024;2022-08-04T01:52:51;5.20;;;3.20;;
72586;SDS011;60621;49.576;11.024;2022-08-04T01:53:55;5.88;;;3.10;;
72586;SDS011;60621;49.576;11.024;2022-08-04T01:54:56;5.03;;;3.28;;
72586;SDS011;60621;49.576;11.024;2022-08-04T01:55:58;5.20;;;2.83;;
72586;SDS011;60621;49.576;11.024;2022-08-04T01:57:01;6.72;;;3.30;;
72586;SDS011;60621;49.576;11.024;2022-08-04T01:58:27;6.65;;;3.10;;
72586;SDS011;60621;49.576;11.024;2022-08-04T01:59:29;5.00;;;3.20;;
72586;SDS011;60621;49.576;11.024;2022-08-04T02:01:34;5.57;;;3.47;;
72586;SDS011;60621;49.576;11.024;2022-08-04T02:02:36;5.40;;;3.42;;
72586;SDS011;60621;49.576;11.024;2022-08-04T02:03:43;4.93;;;3.20;;
72586;SDS011;60621;49.576;11.024;2022-08-04T02:05:08;5.32;;;3.20;;
72586;SDS011;60621;49.576;11.024;2022-08-04T02:11:55;5.57;;;3.15;;
72586;SDS011;60621;49.576;11.024;2022-08-04T02:13:29;5.93;;;3.40;;
72586;SDS011;60621;49.576;11.024;2022-08-04T02:14:48;5.00;;;3.17;;
72586;SDS011;60621;49.576;11.024;2022-08-04T02:16:22;6.22;;;3.60;;
72586;SDS011;60621;49.576;11.024;2022-08-04T02:17:31;5.75;;;3.38;;
72586;SDS011;60621;49.576;11.024;2022-08-04T02:18:39;6.10;;;3.60;;
72586;SDS011;60621;49.576;11.024;2022-08-04T02:19:48;5.10;;;3.20;;
72586;SDS011;60621;49.576;11.024;2022-08-04T02:21:01;6.28;;;3.20;;
72586;SDS011;60621;49.576;11.024;2022-08-04T02:22:07;6.15;;;3.25;;
72586;SDS011;60621;49.576;11.024;2022-08-04T02:23:13;4.95;;;3.22;;
72586;SDS011;60621;49.576;11.024;2022-08-04T02:24:16;5.82;;;3.42;;
72586;SDS011;60621;49.576;11.024;2022-08-04T02:25:21;5.35;;;3.30;;
72586;SDS011;60621;49.576;11.024;2022-08-04T02:26:26;6.38;;;3.40;;
72586;SDS011;60621;49.576;11.024;2022-08-04T02:27:34;4.85;;;3.10;;
72586;SDS011;60621;49.576;11.024;2022-08-04T02:29:20;5.32;;;3.55;;
72586;SDS011;60621;49.576;11.024;2022-08-04T02:30:37;5.53;;;3.58;;
72586;SDS011;60621;49.576;11.024;2022-08-04T02:31:57;5.38;;;3.67;;
72586;SDS011;60621;49.576;11.024;2022-08-04T02:33:03;7.18;;;3.63;;
72586;SDS011;60621;49.576;11.024;2022-08-04T02:34:16;6.25;;;3.20;;
72586;SDS011;60621;49.576;11.024;2022-08-04T02:35:25;5.47;;;3.67;;
72586;SDS011;60621;49.576;11.024;2022-08-04T02:36:34;5.50;;;3.38;;
72586;SDS011;60621;49.576;11.024;2022-08-04T02:37:38;5.47;;;3.40;;
72586;SDS011;60621;49.576;11.024;2022-08-04T02:38:53;5.68;;;3.20;;
72586;SDS011;60621;49.576;11.024;2022-08-04T02:39:58;6.25;;;3.30;;
72586;SDS011;60621;49.576;11.024;2022-08-04T02:41:01;5.25;;;3.40;;
72586;SDS011;60621;49.576;11.024;2022-08-04T02:42:05;4.60;;;3.20;;
72586;SDS011;60621;49.576;11.024;2022-08-04T02:43:10;4.95;;;3.33;;
72586;SDS011;60621;49.576;11.024;2022-08-04T02:45:19;5.60;;;3.30;;
72586;SDS011;60621;49.576;11.024;2022-08-04T02:46:23;5.57;;;3.42;;
72586;SDS011;60621;49.576;11.024;2022-08-04T02:47:26;5.47;;;3.42;;
72586;SDS011;60621;49.576;11.024;2022-08-04T02:48:49;4.80;;;3.13;;
72586;SDS011;60621;49.576;11.024;2022-08-04T02:49:53;4.90;;;3.20;;
72586;SDS011;60621;49.576;11.024;2022-08-04T02:50:59;5.05;;;3.42;;
72586;SDS011;60621;49.576;11.024;2022-08-04T02:52:03;5.88;;;3.47;;
72586;SDS011;60621;49.576;11.024;2022-08-04T02:53:07;4.65;;;3.22;;
72586;SDS011;60621;49.576;11.024;2022-08-04T02:54:15;5.72;;;3.58;;
72586;SDS011;60621;49.576;11.024;2022-08-04T02:55:32;6.22;;;3.22;;
72586;SDS011;60621;49.576;11.024;2022-08-04T02:56:37;5.10;;;3.10;;
72586;SDS011;60621;49.576;11.024;2022-08-04T02:57:39;6.00;;;3.40;;
72586;SDS011;60621;49.576;11.024;2022-08-04T02:58:42;6.00;;;3.20;;
72586;SDS011;60621;49.576;11.024;2022-08-04T03:00:03;7.10;;;3.55;;
72586;SDS011;60621;49.576;11.024;2022-08-04T03:01:11;5.32;;;3.30;;
72586;SDS011;60621;49.576;11.024;2022-08-04T03:02:12;5.78;;;3.42;;
72586;SDS011;60621;49.576;11.024;2022-08-04T03:03:20;5.13;;;3.35;;
72586;SDS011;60621;49.576;11.024;2022-08-04T03:23:04;5.32;;;3.22;;
72586;SDS011;60621;49.576;11.024;2022-08-04T03:25:58;5.35;;;3.33;;
72586;SDS011;60621;49.576;11.024;2022-08-04T03:33:43;5.20;;;3.30;;
72586;SDS011;60621;49.576;11.024;2022-08-04T03:41:45;7.10;;;3.53;;
72586;SDS011;60621;49.576;11.024;2022-08-04T03:52:09;5.63;;;3.30;;
72586;SDS011;60621;49.576;11.024;2022-08-04T03:55:19;5.47;;;3.30;;
72586;SDS011;60621;49.576;11.024;2022-08-04T03:56:36;4.80;;;2.97;;
72586;SDS011;60621;49.576;11.024;2022-08-04T04:00:39;6.03;;;3.42;;
72586;SDS011;60621;49.576;11.024;2022-08-04T04:02:13;5.00;;;3.30;;
72586;SDS011;60621;49.576;11.024;2022-08-04T04:07:39;6.38;;;3.28;;
72586;SDS011;60621;49.576;11.024;2022-08-04T04:13:43;6.53;;;3.17;;
72586;SDS011;60621;49.576;11.024;2022-08-04T04:17:32;8.23;;;3.60;;
72586;SDS011;60621;49.576;11.024;2022-08-04T04:18:48;5.25;;;3.28;;
72586;SDS011;60621;49.576;11.024;2022-08-04T04:23:56;5.70;;;3.53;;
72586;SDS011;60621;49.576;11.024;2022-08-04T04:25:35;5.78;;;3.60;;
72586;SDS011;60621;49.576;11.024;2022-08-04T04:26:50;5.22;;;3.15;;
72586;SDS011;60621;49.576;11.024;2022-08-04T04:34:23;6.95;;;3.35;;
72586;SDS011;60621;49.576;11.024;2022-08-04T04:40:41;6.18;;;3.25;;
72586;SDS011;60621;49.576;11.024;2022-08-04T04:45:04;5.03;;;3.10;;
72586;SDS011;60621;49.576;11.024;2022-08-04T04:46:33;5.88;;;3.03;;
72586;SDS011;60621;49.576;11.024;2022-08-04T04:48:11;5.60;;;3.25;;
72586;SDS011;60621;49.576;11.024;2022-08-04T04:50:52;6.57;;;3.47;;
72586;SDS011;60621;49.576;11.024;2022-08-04T04:53:26;5.30;;;3.25;;
72586;SDS011;60621;49.576;11.024;2022-08-04T04:56:26;5.68;;;2.90;;
72586;SDS011;60621;49.576;11.024;2022-08-04T04:57:35;6.28;;;3.05;;
72586;SDS011;60621;49.576;11.024;2022-08-04T04:58:55;5.60;;;2.95;;
72586;SDS011;60621;49.576;11.024;2022-08-04T05:00:04;6.00;;;3.20;;
72586;SDS011;60621;49.576;11.024;2022-08-04T05:01:39;8.15;;;3.03;;
72586;SDS011;60621;49.576;11.024;2022-08-04T05:02:53;6.57;;;3.25;;
72586;SDS011;60621;49.576;11.024;2022-08-04T05:05:41;5.13;;;2.70;;
72586;SDS011;60621;49.576;11.024;2022-08-04T05:07:03;8.93;;;2.92;;
72586;SDS011;60621;49.576;11.024;2022-08-04T05:13:09;6.70;;;3.00;;
72586;SDS011;60621;49.576;11.024;2022-08-04T05:14:54;6.60;;;3.28;;
72586;SDS011;60621;49.576;11.024;2022-08-04T05:16:04;8.35;;;3.17;;
72586;SDS011;60621;49.576;11.024;2022-08-04T05:17:16;6.55;;;2.90;;
72586;SDS011;60621;49.576;11.024;2022-08-04T05:18:23;6.55;;;3.00;;
72586;SDS011;60621;49.576;11.024;2022-08-04T05:19:33;8.10;;;3.55;;
72586;SDS011;60621;49.576;11.024;2022-08-04T05:20:44;6.07;;;2.90;;
72586;SDS011;60621;49.576;11.024;2022-08-04T05:23:32;5.88;;;3.20;;
72586;SDS011;60621;49.576;11.024;2022-08-04T05:24:41;6.55;;;3.17;;
72586;SDS011;60621;49.576;11.024;2022-08-04T05:25:58;7.03;;;3.58;;
72586;SDS011;60621;49.576;11.024;2022-08-04T05:27:02;6.68;;;3.45;;
72586;SDS011;60621;49.576;11.024;2022-08-04T05:28:20;7.22;;;3.25;;
72586;SDS011;60621;49.576;11.024;2022-08-04T05:29:29;6.57;;;3.40;;
72586;SDS011;60621;49.576;11.024;2022-08-04T05:30:37;11.32;;;3.53;;
72586;SDS011;60621;49.576;11.024;2022-08-04T05:31:49;8.88;;;3.33;;
72586;SDS011;60621;49.576;11.024;2022-08-04T05:33:02;6.22;;;2.92;;
72586;SDS011;60621;49.576;11.024;2022-08-04T05:34:08;8.15;;;3.20;;
72586;SDS011;60621;49.576;11.024;2022-08-04T05:35:14;5.30;;;2.92;;
72586;SDS011;60621;49.576;11.024;2022-08-04T05:36:46;8.73;;;3.65;;
72586;SDS011;60621;49.576;11.024;2022-08-04T05:37:48;8.98;;;3.58;;
72586;SDS011;60621;49.576;11.024;2022-08-04T05:39:02;5.88;;;2.97;;
72586;SDS011;60621;49.576;11.024;2022-08-04T05:40:06;7.05;;;3.20;;
72586;SDS011;60621;49.576;11.024;2022-08-04T05:41:10;6.60;;;3.50;;
72586;SDS011;60621;49.576;11.024;2022-08-04T05:42:13;10.88;;;4.80;;
72586;SDS011;60621;49.576;11.024;2022-08-04T05:43:15;8.60;;;4.05;;
72586;SDS011;60621;49.576;11.024;2022-08-04T05:44:19;11.25;;;3.95;;
72586;SDS011;60621;49.576;11.024;2022-08-04T05:45:23;5.47;;;3.28;;
72586;SDS011;60621;49.576;11.024;2022-08-04T05:46:26;6.53;;;3.10;;
72586;SDS011;60621;49.576;11.024;2022-08-04T05:47:30;8.90;;;3.42;;
72586;SDS011;60621;49.576;11.024;2022-08-04T05:48:33;7.35;;;3.13;;
72586;SDS011;60621;49.576;11.024;2022-08-04T05:49:36;6.35;;;3.00;;
72586;SDS011;60621;49.576;11.024;2022-08-04T05:50:41;7.85;;;3.38;;
72586;SDS011;60621;49.576;11.024;2022-08-04T05:51:44;8.30;;;2.92;;
72586;SDS011;60621;49.576;11.024;2022-08-04T05:53:49;6.00;;;2.92;;
72586;SDS011;60621;49.576;11.024;2022-08-04T05:54:53;6.63;;;3.10;;
72586;SDS011;60621;49.576;11.024;2022-08-04T05:55:56;5.28;;;2.78;;
72586;SDS011;60621;49.576;11.024;2022-08-04T05:57:01;5.47;;;2.53;;
72586;SDS011;60621;49.576;11.024;2022-08-04T05:58:07;5.50;;;3.00;;
72586;SDS011;60621;49.576;11.024;2022-08-04T05:59:09;6.45;;;3.03;;
72586;SDS011;60621;49.576;11.024;2022-08-04T06:00:12;5.95;;;2.80;;
72586;SDS011;60621;49.576;11.024;2022-08-04T06:01:37;5.35;;;2.58;;
72586;SDS011;60621;49.576;11.024;2022-08-04T06:02:57;5.20;;;2.55;;
72586;SDS011;60621;49.576;11.024;2022-08-04T06:04:00;4.93;;;2.33;;
72586;SDS011;60621;49.576;11.024;2022-08-04T06:05:11;4.57;;;2.45;;
72586;SDS011;60621;49.576;11.024;2022-08-04T06:06:15;4.53;;;2.70;;
72586;SDS011;60621;49.576;11.024;2022-08-04T06:07:19;4.13;;;2.30;;
72586;SDS011;60621;49.576;11.024;2022-08-04T06:08:21;5.57;;;2.65;;
72586;SDS011;60621;49.576;11.024;2022-08-04T06:09:24;4.95;;;2.70;;
72586;SDS011;60621;49.576;11.024;2022-08-04T06:10:26;5.72;;;2.50;;
72586;SDS011;60621;49.576;11.024;2022-08-04T06:11:30;5.60;;;2.80;;
72586;SDS011;60621;49.576;11.024;2022-08-04T06:12:55;5.47;;;2.60;;
72586;SDS011;60621;49.576;11.024;2022-08-04T06:14:02;5.03;;;2.55;;
72586;SDS011;60621;49.576;11.024;2022-08-04T06:15:07;5.13;;;2.60;;
72586;SDS011;60621;49.576;11.024;2022-08-04T06:16:13;5.03;;;2.70;;
72586;SDS011;60621;49.576;11.024;2022-08-04T06:17:39;4.40;;;2.40;;
72586;SDS011;60621;49.576;11.024;2022-08-04T06:19:05;4.90;;;2.40;;
72586;SDS011;60621;49.576;11.024;2022-08-04T06:20:29;4.47;;;2.60;;
72586;SDS011;60621;49.576;11.024;2022-08-04T06:21:36;4.45;;;2.58;;
72586;SDS011;60621;49.576;11.024;2022-08-04T06:22:41;4.50;;;2.50;;
72586;SDS011;60621;49.576;11.024;2022-08-04T06:23:44;6.85;;;2.72;;
72586;SDS011;60621;49.576;11.024;2022-08-04T06:25:01;5.38;;;2.85;;
72586;SDS011;60621;49.576;11.024;2022-08-04T06:26:07;6.03;;;2.50;;
72586;SDS011;60621;49.576;11.024;2022-08-04T06:27:11;6.05;;;2.80;;
72586;SDS011;60621;49.576;11.024;2022-08-04T06:29:17;4.38;;;2.50;;
72586;SDS011;60621;49.576;11.024;2022-08-04T06:30:27;5.82;;;2.80;;
72586;SDS011;60621;49.576;11.024;2022-08-04T06:31:32;4.82;;;2.55;;
72586;SDS011;60621;49.576;11.024;2022-08-04T06:33:07;4.47;;;2.50;;
72586;SDS011;60621;49.576;11.024;2022-08-04T06:34:54;4.40;;;2.60;;
72586;SDS011;60621;49.576;11.024;2022-08-04T06:35:58;4.55;;;2.75;;
72586;SDS011;60621;49.576;11.024;2022-08-04T06:37:02;5.70;;;3.53;;
72586;SDS011;60621;49.576;11.024;2022-08-04T06:38:04;4.82;;;2.38;;
72586;SDS011;60621;49.576;11.024;2022-08-04T06:39:07;6.88;;;2.60;;
72586;SDS011;60621;49.576;11.024;2022-08-04T06:40:14;5.03;;;2.35;;
72586;SDS011;60621;49.576;11.024;2022-08-04T06:41:32;7.82;;;2.70;;
72586;SDS011;60621;49.576;11.024;2022-08-04T06:42:34;4.68;;;2.60;;
72586;SDS011;60621;49.576;11.024;2022-08-04T06:43:37;10.10;;;2.72;;
72586;SDS011;60621;49.576;11.024;2022-08-04T06:44:45;5.10;;;2.45;;
72586;SDS011;60621;49.576;11.024;2022-08-04T06:45:51;5.25;;;2.35;;
72586;SDS011;60621;49.576;11.024;2022-08-04T06:46:55;7.30;;;2.70;;
72586;SDS011;60621;49.576;11.024;2022-08-04T06:47:57;4.13;;;2.47;;
72586;SDS011;60621;49.576;11.024;2022-08-04T06:49:01;5.95;;;3.08;;
72586;SDS011;60621;49.576;11.024;2022-08-04T06:50:05;8.13;;;2.80;;
72586;SDS011;60621;49.576;11.024;2022-08-04T06:51:28;5.32;;;2.90;;
72586;SDS011;60621;49.576;11.024;2022-08-04T06:52:45;5.32;;;2.42;;
72586;SDS011;60621;49.576;11.024;2022-08-04T06:53:47;5.28;;;2.78;;
72586;SDS011;60621;49.576;11.024;2022-08-04T06:54:49;5.00;;;2.75;;
72586;SDS011;60621;49.576;11.024;2022-08-04T06:55:52;6.07;;;2.50;;
72586;SDS011;60621;49.576;11.024;2022-08-04T06:56:54;5.55;;;2.45;;
72586;SDS011;60621;49.576;11.024;2022-08-04T06:58:01;5.53;;;2.40;;
72586;SDS011;60621;49.576;11.024;2022-08-04T06:59:04;6.47;;;2.70;;
72586;SDS011;60621;49.576;11.024;2022-08-04T07:00:08;6.10;;;2.40;;
72586;SDS011;60621;49.576;11.024;2022-08-04T07:01:12;6.78;;;2.67;;
72586;SDS011;60621;49.576;11.024;2022-08-04T07:02:19;4.93;;;2.50;;
72586;SDS011;60621;49.576;11.024;2022-08-04T07:03:24;4.40;;;2.42;;
72586;SDS011;60621;49.576;11.024;2022-08-04T07:04:25;4.10;;;2.33;;
72586;SDS011;60621;49.576;11.024;2022-08-04T07:05:28;5.28;;;2.30;;
72586;SDS011;60621;49.576;11.024;2022-08-04T07:06:30;5.53;;;2.38;;
72586;SDS011;60621;49.576;11.024;2022-08-04T07:07:33;4.88;;;2.40;;
72586;SDS011;60621;49.576;11.024;2022-08-04T07:08:55;5.65;;;2.47;;
72586;SDS011;60621;49.576;11.024;2022-08-04T07:09:58;5.25;;;2.53;;
72586;SDS011;60621;49.576;11.024;2022-08-04T07:11:01;5.28;;;2.53;;
72586;SDS011;60621;49.576;11.024;2022-08-04T07:12:04;5.05;;;2.53;;
72586;SDS011;60621;49.576;11.024;2022-08-04T07:14:09;4.78;;;2.80;;
72586;SDS011;60621;49.576;11.024;2022-08-04T07:15:12;5.15;;;2.60;;
72586;SDS011;60621;49.576;11.024;2022-08-04T07:16:14;4.82;;;2.35;;
72586;SDS011;60621;49.576;11.024;2022-08-04T07:17:18;5.07;;;2.42;;
72586;SDS011;60621;49.576;11.024;2022-08-04T07:18:21;6.78;;;2.60;;
72586;SDS011;60621;49.576;11.024;2022-08-04T07:19:23;6.55;;;2.53;;
72586;SDS011;60621;49.576;11.024;2022-08-04T07:20:25;4.90;;;2.50;;
72586;SDS011;60621;49.576;11.024;2022-08-04T07:21:36;7.88;;;2.78;;
72586;SDS011;60621;49.576;11.024;2022-08-04T07:22:39;4.20;;;2.42;;
72586;SDS011;60621;49.576;11.024;2022-08-04T07:23:43;4.88;;;2.42;;
72586;SDS011;60621;49.576;11.024;2022-08-04T07:24:46;5.63;;;2.60;;
72586;SDS011;60621;49.576;11.024;2022-08-04T07:25:57;8.25;;;2.50;;
72586;SDS011;60621;49.576;11.024;2022-08-04T07:27:14;8.93;;;2.80;;
72586;SDS011;60621;49.576;11.024;2022-08-04T07:28:37;4.97;;;2.22;;
72586;SDS011;60621;49.576;11.024;2022-08-04T07:29:39;8.00;;;2.70;;
72586;SDS011;60621;49.576;11.024;2022-08-04T07:30:42;7.30;;;2.90;;
72586;SDS011;60621;49.576;11.024;2022-08-04T07:31:45;4.85;;;2.55;;
72586;SDS011;60621;49.576;11.024;2022-08-04T07:32:48;4.43;;;2.35;;
72586;SDS011;60621;49.576;11.024;2022-08-04T07:33:51;5.93;;;2.55;;
72586;SDS011;60621;49.576;11.024;2022-08-04T07:35:13;4.72;;;2.65;;
72586;SDS011;60621;49.576;11.024;2022-08-04T07:36:36;4.78;;;2.42;;
72586;SDS011;60621;49.576;11.024;2022-08-04T07:38:52;4.43;;;2.47;;
72586;SDS011;60621;49.576;11.024;2022-08-04T07:39:55;6.45;;;2.60;;
72586;SDS011;60621;49.576;11.024;2022-08-04T07:40:57;4.70;;;2.40;;
72586;SDS011;60621;49.576;11.024;2022-08-04T07:41:59;4.55;;;2.35;;
72586;SDS011;60621;49.576;11.024;2022-08-04T07:43:02;6.18;;;2.60;;
72586;SDS011;60621;49.576;11.024;2022-08-04T07:45:07;4.50;;;2.70;;
72586;SDS011;60621;49.576;11.024;2022-08-04T07:46:10;5.60;;;2.80;;
72586;SDS011;60621;49.576;11.024;2022-08-04T07:47:12;5.57;;;2.63;;
72586;SDS011;60621;49.576;11.024;2022-08-04T07:48:14;6.03;;;2.63;;
72586;SDS011;60621;49.576;11.024;2022-08-04T07:49:19;7.03;;;2.33;;
72586;SDS011;60621;49.576;11.024;2022-08-04T07:50:42;6.50;;;2.55;;
72586;SDS011;60621;49.576;11.024;2022-08-04T07:51:45;4.57;;;2.55;;
72586;SDS011;60621;49.576;11.024;2022-08-04T07:52:46;5.32;;;2.60;;
72586;SDS011;60621;49.576;11.024;2022-08-04T07:54:09;7.13;;;2.60;;
72586;SDS011;60621;49.576;11.024;2022-08-04T07:55:12;5.60;;;2.53;;
72586;SDS011;60621;49.576;11.024;2022-08-04T07:56:14;4.55;;;2.42;;
72586;SDS011;60621;49.576;11.024;2022-08-04T07:57:17;6.05;;;2.60;;
72586;SDS011;60621;49.576;11.024;2022-08-04T07:58:40;4.90;;;2.50;;
72586;SDS011;60621;49.576;11.024;2022-08-04T07:59:42;4.20;;;2.28;;
72586;SDS011;60621;49.576;11.024;2022-08-04T08:00:50;4.45;;;2.50;;
72586;SDS011;60621;49.576;11.024;2022-08-04T08:01:52;4.97;;;2.88;;
72586;SDS011;60621;49.576;11.024;2022-08-04T08:02:54;8.27;;;2.55;;
72586;SDS011;60621;49.576;11.024;2022-08-04T08:03:57;4.22;;;2.30;;
72586;SDS011;60621;49.576;11.024;2022-08-04T08:04:59;5.78;;;2.33;;
72586;SDS011;60621;49.576;11.024;2022-08-04T08:06:02;4.47;;;2.22;;
72586;SDS011;60621;49.576;11.024;2022-08-04T08:07:24;4.88;;;2.42;;
72586;SDS011;60621;49.576;11.024;2022-08-04T08:08:26;5.43;;;2.47;;
72586;SDS011;60621;49.576;11.024;2022-08-04T08:09:27;7.13;;;2.50;;
72586;SDS011;60621;49.576;11.024;2022-08-04T08:10:34;4.80;;;2.30;;
72586;SDS011;60621;49.576;11.024;2022-08-04T08:11:36;5.85;;;2.60;;
72586;SDS011;60621;49.576;11.024;2022-08-04T08:12:58;6.95;;;2.33;;
72586;SDS011;60621;49.576;11.024;2022-08-04T08:14:00;4.45;;;2.50;;
72586;SDS011;60621;49.576;11.024;2022-08-04T08:15:03;6.78;;;2.60;;
72586;SDS011;60621;49.576;11.024;2022-08-04T08:16:10;4.40;;;2.42;;
72586;SDS011;60621;49.576;11.024;2022-08-04T08:17:12;5.90;;;2.47;;
72586;SDS011;60621;49.576;11.024;2022-08-04T08:18:13;6.03;;;2.50;;
72586;SDS011;60621;49.576;11.024;2022-08-04T08:19:15;4.63;;;2.25;;
72586;SDS011;60621;49.576;11.024;2022-08-04T08:20:17;5.85;;;2.63;;
72586;SDS011;60621;49.576;11.024;2022-08-04T08:21:30;5.55;;;2.20;;
72586;SDS011;60621;49.576;11.024;2022-08-04T08:22:31;4.43;;;2.25;;
72586;SDS011;60621;49.576;11.024;2022-08-04T08:23:33;5.25;;;2.60;;
72586;SDS011;60621;49.576;11.024;2022-08-04T08:24:36;3.90;;;2.20;;
72586;SDS011;60621;49.576;11.024;2022-08-04T08:25:38;6.40;;;2.50;;
72586;SDS011;60621;49.576;11.024;2022-08-04T08:26:40;5.22;;;2.20;;
72586;SDS011;60621;49.576;11.024;2022-08-04T08:27:42;4.75;;;2.42;;
72586;SDS011;60621;49.576;11.024;2022-08-04T08:28:56;4.28;;;2.38;;
72586;SDS011;60621;49.576;11.024;2022-08-04T08:29:58;4.30;;;2.20;;
72586;SDS011;60621;49.576;11.024;2022-08-04T08:31:00;6.43;;;2.45;;
72586;SDS011;60621;49.576;11.024;2022-08-04T08:32:08;5.40;;;2.35;;
72586;SDS011;60621;49.576;11.024;2022-08-04T08:33:13;4.95;;;2.28;;
72586;SDS011;60621;49.576;11.024;2022-08-04T08:34:15;4.25;;;2.33;;
72586;SDS011;60621;49.576;11.024;2022-08-04T08:35:28;4.40;;;2.30;;
72586;SDS011;60621;49.576;11.024;2022-08-04T08:36:58;3.72;;;2.13;;
72586;SDS011;60621;49.576;11.024;2022-08-04T08:38:04;4.03;;;2.10;;
72586;SDS011;60621;49.576;11.024;2022-08-04T08:40:50;4.40;;;2.20;;
72586;SDS011;60621;49.576;11.024;2022-08-04T08:42:14;6.90;;;2.45;;
72586;SDS011;60621;49.576;11.024;2022-08-04T08:43:47;4.82;;;2.22;;
72586;SDS011;60621;49.576;11.024;2022-08-04T08:46:41;5.35;;;2.10;;
72586;SDS011;60621;49.576;11.024;2022-08-04T08:54:08;5.28;;;2.20;;
72586;SDS011;60621;49.576;11.024;2022-08-04T08:55:28;4.97;;;2.30;;
72586;SDS011;60621;49.576;11.024;2022-08-04T08:59:38;6.75;;;2.28;;
72586;SDS011;60621;49.576;11.024;2022-08-04T09:02:52;4.78;;;2.03;;
72586;SDS011;60621;49.576;11.024;2022-08-04T09:05:44;5.47;;;2.30;;
72586;SDS011;60621;49.576;11.024;2022-08-04T09:07:23;4.57;;;2.00;;
72586;SDS011;60621;49.576;11.024;2022-08-04T09:08:36;6.88;;;2.17;;
72586;SDS011;60621;49.576;11.024;2022-08-04T09:10:04;4.18;;;2.03;;
72586;SDS011;60621;49.576;11.024;2022-08-04T09:11:14;5.25;;;2.08;;
72586;SDS011;60621;49.576;11.024;2022-08-04T09:13:29;4.57;;;2.40;;
72586;SDS011;60621;49.576;11.024;2022-08-04T09:17:10;4.63;;;2.05;;
72586;SDS011;60621;49.576;11.024;2022-08-04T09:18:26;4.22;;;2.20;;
72586;SDS011;60621;49.576;11.024;2022-08-04T09:19:35;4.82;;;2.28;;
72586;SDS011;60621;49.576;11.024;2022-08-04T09:22:19;5.38;;;1.98;;
72586;SDS011;60621;49.576;11.024;2022-08-04T09:23:50;3.85;;;2.25;;
72586;SDS011;60621;49.576;11.024;2022-08-04T09:25:01;5.22;;;2.10;;
72586;SDS011;60621;49.576;11.024;2022-08-04T09:26:14;5.60;;;2.10;;
72586;SDS011;60621;49.576;11.024;2022-08-04T09:27:26;7.78;;;2.17;;
72586;SDS011;60621;49.576;11.024;2022-08-04T09:29:26;4.22;;;2.10;;
72586;SDS011;60621;49.576;11.024;2022-08-04T09:30:07;4.15;;;2.10;;
72586;SDS011;60621;49.576;11.024;2022-08-04T09:31:12;5.45;;;2.22;;
72586;SDS011;60621;49.576;11.024;2022-08-04T09:32:29;4.78;;;2.08;;
72586;SDS011;60621;49.576;11.024;2022-08-04T09:36:35;3.88;;;2.20;;
72586;SDS011;60621;49.576;11.024;2022-08-04T09:37:47;4.43;;;2.20;;
72586;SDS011;60621;49.576;11.024;2022-08-04T09:39:02;4.97;;;2.15;;